PSQWA SBJE-SBFZ
Flight info
| Callsign | PSQWA |
|---|---|
| Flight time | 0h 24m |
| Altitude | 17000 |
| Route | KILIS |
| Aircraft | C750/M-SBDGHIRWXYZ/LB1V2 |
Departure
| Time | 2026-05-04 23:16 |
|---|---|
| Airport | Comandante Ariston Pessoa Airport (SBJE) |
Arrival
| Time | 2026-05-04 23:41 |
|---|---|
| Airport | Pinto Martins International Airport (SBFZ) |
| Time | Latitude | Longitude | Altitude | Speed | Heading |
|---|---|---|---|---|---|
| 2026-05-04 23:04 | -2.90473 | -40.34850 | 98 ft | 0 kts | 242° |
| 2026-05-04 23:13 | -2.90476 | -40.34857 | 98 ft | 2 kts | 242° |
| 2026-05-04 23:13 | -2.90487 | -40.34877 | 98 ft | 5 kts | 242° |
| 2026-05-04 23:14 | -2.90492 | -40.34898 | 98 ft | 2 kts | 280° |
| 2026-05-04 23:14 | -2.90482 | -40.34914 | 98 ft | 4 kts | 327° |
| 2026-05-04 23:14 | -2.90446 | -40.34928 | 98 ft | 6 kts | 345° |
| 2026-05-04 23:14 | -2.90392 | -40.34952 | 98 ft | 11 kts | 328° |
| 2026-05-04 23:15 | -2.90375 | -40.35009 | 98 ft | 11 kts | 270° |
| 2026-05-04 23:15 | -2.90367 | -40.35087 | 99 ft | 9 kts | 306° |
| 2026-05-04 23:15 | -2.90352 | -40.35156 | 100 ft | 15 kts | 241° |
| 2026-05-04 23:15 | -2.90503 | -40.35453 | 99 ft | 103 kts | 243° |
| 2026-05-04 23:16 | -2.90948 | -40.36344 | 114 ft | 173 kts | 242° |
| 2026-05-04 23:16 | -2.91508 | -40.37384 | 878 ft | 166 kts | 238° |
| 2026-05-04 23:16 | -2.91446 | -40.38526 | 1328 ft | 184 kts | 307° |
| 2026-05-04 23:16 | -2.90301 | -40.39019 | 1942 ft | 186 kts | 7° |
| 2026-05-04 23:17 | -2.89140 | -40.38481 | 2582 ft | 192 kts | 41° |
| 2026-05-04 23:17 | -2.88180 | -40.37535 | 3312 ft | 193 kts | 60° |
| 2026-05-04 23:17 | -2.87734 | -40.36242 | 3897 ft | 206 kts | 80° |
| 2026-05-04 23:17 | -2.87454 | -40.34762 | 4355 ft | 227 kts | 82° |
| 2026-05-04 23:18 | -2.87704 | -40.33131 | 4638 ft | 257 kts | 117° |
| 2026-05-04 23:18 | -2.88715 | -40.31661 | 5654 ft | 255 kts | 126° |
| 2026-05-04 23:18 | -2.89677 | -40.30116 | 6622 ft | 261 kts | 117° |
| 2026-05-04 23:18 | -2.90394 | -40.28455 | 7548 ft | 266 kts | 111° |
| 2026-05-04 23:19 | -2.91083 | -40.26721 | 8584 ft | 271 kts | 111° |
| 2026-05-04 23:19 | -2.91855 | -40.24979 | 9575 ft | 277 kts | 113° |
| 2026-05-04 23:19 | -2.92681 | -40.23169 | 10282 ft | 290 kts | 113° |
| 2026-05-04 23:19 | -2.93524 | -40.21266 | 10531 ft | 317 kts | 112° |
| 2026-05-04 23:20 | -2.94448 | -40.19155 | 10674 ft | 344 kts | 112° |
| 2026-05-04 23:20 | -2.95429 | -40.16942 | 11397 ft | 348 kts | 112° |
| 2026-05-04 23:20 | -2.96418 | -40.14720 | 12172 ft | 352 kts | 112° |
| 2026-05-04 23:20 | -2.97416 | -40.12463 | 12899 ft | 356 kts | 112° |
| 2026-05-04 23:21 | -2.98424 | -40.10181 | 13638 ft | 360 kts | 112° |
| 2026-05-04 23:21 | -2.99444 | -40.07876 | 14293 ft | 365 kts | 112° |
| 2026-05-04 23:21 | -3.00479 | -40.05538 | 14939 ft | 368 kts | 112° |
| 2026-05-04 23:21 | -3.01519 | -40.03188 | 15585 ft | 372 kts | 112° |
| 2026-05-04 23:22 | -3.02570 | -40.00811 | 16250 ft | 376 kts | 112° |
| 2026-05-04 23:22 | -3.03638 | -39.98399 | 16872 ft | 382 kts | 112° |
| 2026-05-04 23:22 | -3.04743 | -39.95898 | 16943 ft | 404 kts | 112° |
| 2026-05-04 23:22 | -3.05907 | -39.93264 | 16947 ft | 424 kts | 113° |
| 2026-05-04 23:23 | -3.07123 | -39.90518 | 16951 ft | 441 kts | 113° |
| 2026-05-04 23:23 | -3.08365 | -39.87714 | 16947 ft | 442 kts | 113° |
| 2026-05-04 23:23 | -3.09615 | -39.84887 | 16947 ft | 441 kts | 112° |
| 2026-05-04 23:23 | -3.10839 | -39.82114 | 16946 ft | 443 kts | 113° |
| 2026-05-04 23:24 | -3.12094 | -39.79286 | 16945 ft | 446 kts | 113° |
| 2026-05-04 23:24 | -3.13345 | -39.76452 | 16951 ft | 447 kts | 113° |
| 2026-05-04 23:24 | -3.14600 | -39.73600 | 16944 ft | 447 kts | 113° |
| 2026-05-04 23:24 | -3.15858 | -39.70759 | 16952 ft | 447 kts | 113° |
| 2026-05-04 23:25 | -3.17120 | -39.67919 | 16945 ft | 447 kts | 113° |
| 2026-05-04 23:25 | -3.18381 | -39.65070 | 16952 ft | 445 kts | 113° |
| 2026-05-04 23:25 | -3.19631 | -39.62236 | 16952 ft | 446 kts | 113° |
| 2026-05-04 23:25 | -3.20882 | -39.59395 | 16946 ft | 446 kts | 113° |
| 2026-05-04 23:26 | -3.22143 | -39.56546 | 16951 ft | 447 kts | 113° |
| 2026-05-04 23:26 | -3.23401 | -39.53700 | 16954 ft | 447 kts | 113° |
| 2026-05-04 23:26 | -3.24658 | -39.50849 | 16955 ft | 447 kts | 113° |
| 2026-05-04 23:26 | -3.25915 | -39.48016 | 16952 ft | 445 kts | 113° |
| 2026-05-04 23:27 | -3.27172 | -39.45173 | 16953 ft | 447 kts | 113° |
| 2026-05-04 23:27 | -3.28476 | -39.42352 | 16931 ft | 447 kts | 117° |
| 2026-05-04 23:27 | -3.30151 | -39.39733 | 16937 ft | 448 kts | 123° |
| 2026-05-04 23:27 | -3.31897 | -39.37185 | 16948 ft | 449 kts | 123° |
| 2026-05-04 23:28 | -3.33630 | -39.34596 | 16954 ft | 448 kts | 123° |
| 2026-05-04 23:28 | -3.35364 | -39.32017 | 16953 ft | 447 kts | 123° |
| 2026-05-04 23:28 | -3.36525 | -39.30308 | 16903 ft | 428 kts | 123° |
| 2026-05-04 23:28 | -3.38648 | -39.27185 | 16025 ft | 393 kts | 123° |
| 2026-05-04 23:29 | -3.40135 | -39.24977 | 15312 ft | 375 kts | 123° |
| 2026-05-04 23:29 | -3.41575 | -39.22842 | 14607 ft | 367 kts | 123° |
| 2026-05-04 23:29 | -3.43000 | -39.20736 | 13925 ft | 363 kts | 123° |
| 2026-05-04 23:29 | -3.44414 | -39.18648 | 13185 ft | 360 kts | 123° |
| 2026-05-04 23:30 | -3.45811 | -39.16580 | 12460 ft | 357 kts | 123° |
| 2026-05-04 23:30 | -3.47178 | -39.14558 | 12047 ft | 350 kts | 123° |
| 2026-05-04 23:30 | -3.48544 | -39.12535 | 11588 ft | 350 kts | 123° |
| 2026-05-04 23:30 | -3.49445 | -39.11201 | 11278 ft | 348 kts | 123° |
| 2026-05-04 23:31 | -3.51193 | -39.08623 | 10689 ft | 321 kts | 123° |
| 2026-05-04 23:31 | -3.52008 | -39.07418 | 10416 ft | 309 kts | 123° |
| 2026-05-04 23:31 | -3.53179 | -39.05683 | 10020 ft | 294 kts | 122° |
| 2026-05-04 23:31 | -3.54300 | -39.04022 | 9615 ft | 283 kts | 123° |
| 2026-05-04 23:32 | -3.55395 | -39.02402 | 9225 ft | 278 kts | 123° |
| 2026-05-04 23:32 | -3.56481 | -39.00793 | 8730 ft | 286 kts | 124° |
| 2026-05-04 23:32 | -3.57583 | -38.99163 | 8469 ft | 276 kts | 123° |
| 2026-05-04 23:32 | -3.58652 | -38.97583 | 8139 ft | 274 kts | 123° |
| 2026-05-04 23:33 | -3.59719 | -38.96003 | 7781 ft | 273 kts | 123° |
| 2026-05-04 23:33 | -3.60778 | -38.94435 | 7426 ft | 272 kts | 123° |
| 2026-05-04 23:33 | -3.61834 | -38.92872 | 7060 ft | 269 kts | 123° |
| 2026-05-04 23:33 | -3.62880 | -38.91325 | 6705 ft | 267 kts | 124° |
| 2026-05-04 23:34 | -3.63914 | -38.89794 | 6353 ft | 265 kts | 124° |
| 2026-05-04 23:34 | -3.64944 | -38.88269 | 6034 ft | 261 kts | 124° |
| 2026-05-04 23:34 | -3.65960 | -38.86766 | 5692 ft | 260 kts | 125° |
| 2026-05-04 23:34 | -3.66971 | -38.85269 | 5354 ft | 260 kts | 125° |
| 2026-05-04 23:35 | -3.67981 | -38.83772 | 5004 ft | 259 kts | 125° |
| 2026-05-04 23:35 | -3.68981 | -38.82292 | 4669 ft | 255 kts | 126° |
| 2026-05-04 23:35 | -3.69972 | -38.80824 | 4313 ft | 254 kts | 126° |
| 2026-05-04 23:35 | -3.70676 | -38.79217 | 4166 ft | 250 kts | 107° |
| 2026-05-04 23:36 | -3.71098 | -38.77492 | 4059 ft | 260 kts | 107° |
| 2026-05-04 23:36 | -3.71558 | -38.75733 | 3811 ft | 262 kts | 107° |
| 2026-05-04 23:36 | -3.72022 | -38.73962 | 3536 ft | 264 kts | 106° |
| 2026-05-04 23:36 | -3.72475 | -38.72181 | 3250 ft | 264 kts | 106° |
| 2026-05-04 23:37 | -3.72945 | -38.70410 | 2910 ft | 260 kts | 109° |
| 2026-05-04 23:37 | -3.73501 | -38.68760 | 2665 ft | 247 kts | 109° |
| 2026-05-04 23:37 | -3.73935 | -38.67146 | 2418 ft | 236 kts | 105° |
| 2026-05-04 23:37 | -3.74343 | -38.65559 | 2151 ft | 230 kts | 107° |
| 2026-05-04 23:38 | -3.74752 | -38.64028 | 1932 ft | 226 kts | 107° |
| 2026-05-04 23:38 | -3.75154 | -38.62536 | 1639 ft | 223 kts | 105° |
| 2026-05-04 23:38 | -3.75526 | -38.61127 | 1351 ft | 189 kts | 106° |
| 2026-05-04 23:38 | -3.75838 | -38.59962 | 1087 ft | 158 kts | 107° |
| 2026-05-04 23:39 | -3.76093 | -38.59002 | 932 ft | 130 kts | 105° |
| 2026-05-04 23:39 | -3.76319 | -38.58154 | 795 ft | 125 kts | 104° |
| 2026-05-04 23:39 | -3.76541 | -38.57307 | 674 ft | 122 kts | 105° |
| 2026-05-04 23:39 | -3.76774 | -38.56483 | 577 ft | 123 kts | 105° |
| 2026-05-04 23:40 | -3.76995 | -38.55645 | 401 ft | 128 kts | 104° |
| 2026-05-04 23:40 | -3.77225 | -38.54781 | 261 ft | 125 kts | 104° |
| 2026-05-04 23:40 | -3.77443 | -38.53976 | 103 ft | 112 kts | 105° |
| 2026-05-04 23:40 | -3.77621 | -38.53306 | 87 ft | 82 kts | 104° |
| 2026-05-04 23:41 | -3.77686 | -38.53054 | 88 ft | 1 kts | 70° |
| 2026-05-04 23:41 | -3.77657 | -38.53054 | 87 ft | 7 kts | 2° |
| 2026-05-04 23:41 | -3.77596 | -38.53041 | 88 ft | 11 kts | 14° |
| 2026-05-04 23:41 | -3.77533 | -38.53045 | 90 ft | 8 kts | 307° |
| 2026-05-04 23:42 | -3.77511 | -38.53119 | 88 ft | 16 kts | 285° |
| 2026-05-04 23:42 | -3.77481 | -38.53227 | 87 ft | 16 kts | 285° |
| 2026-05-04 23:42 | -3.77454 | -38.53330 | 87 ft | 14 kts | 284° |
| 2026-05-04 23:42 | -3.77430 | -38.53424 | 87 ft | 14 kts | 284° |
| 2026-05-04 23:43 | -3.77407 | -38.53512 | 89 ft | 13 kts | 285° |
| 2026-05-04 23:43 | -3.77392 | -38.53553 | 91 ft | 2 kts | 305° |
| 2026-05-04 23:43 | -3.77384 | -38.53555 | 89 ft | 2 kts | 354° |
| 2026-05-04 23:43 | -3.77369 | -38.53552 | 88 ft | 2 kts | 18° |
| 2026-05-04 23:44 | -3.77342 | -38.53545 | 88 ft | 0 kts | 15° |